Time;durP1;ratioP1;P1;durP2;ratioP2;P2;SDS_P1;SDS_P2;PMS_P1;PMS_P2;Temp;Humidity;BMP_temperature;BMP_pressure;BME280_temperature;BME280_humidity;BME280_pressure;Samples;Min_cycle;Max_cycle;Signal;HPM_P1;HPM_P2
2022/07/30 00:00:30;;;;;;;10.77;8.10;;;;;;;;;;5073737;28;20465;-44
2022/07/30 00:02:55;;;;;;;9.23;6.90;;;;;;;;;;5072099;28;20254;-45
2022/07/30 00:05:20;;;;;;;10.90;7.45;;;;;;;;;;5073265;28;20689;-44
2022/07/30 00:07:46;;;;;;;10.07;7.27;;;;;;;;;;5073399;28;20021;-44
2022/07/30 00:10:11;;;;;;;9.07;7.95;;;;;;;;;;5073233;28;20708;-46
2022/07/30 00:12:37;;;;;;;9.50;7.93;;;;;;;;;;5072637;28;20012;-46
2022/07/30 00:15:02;;;;;;;12.23;7.88;;;;;;;;;;5073311;28;20024;-44
2022/07/30 00:17:27;;;;;;;10.82;7.68;;;;;;;;;;5072084;28;20024;-44
2022/07/30 00:19:53;;;;;;;10.13;8.23;;;;;;;;;;5072751;28;20040;-45
2022/07/30 00:22:18;;;;;;;10.55;8.23;;;;;;;;;;5073035;28;20019;-45
2022/07/30 00:24:43;;;;;;;10.20;8.35;;;;;;;;;;5071373;28;20323;-44
2022/07/30 00:27:09;;;;;;;12.65;8.18;;;;;;;;;;5073041;28;20048;-44
2022/07/30 00:29:34;;;;;;;12.85;8.63;;;;;;;;;;5072108;28;20013;-46
2022/07/30 00:31:59;;;;;;;11.65;8.48;;;;;;;;;;5071894;28;20052;-44
2022/07/30 00:34:25;;;;;;;10.68;8.02;;;;;;;;;;5071998;28;20021;-44
2022/07/30 00:36:50;;;;;;;9.65;8.23;;;;;;;;;;5073344;28;20029;-46
2022/07/30 00:39:15;;;;;;;11.45;7.97;;;;;;;;;;5072115;28;20559;-45
2022/07/30 00:41:54;;;;;;;11.30;8.45;;;;;;;;;;5071860;28;20028;-44
2022/07/30 00:44:19;;;;;;;10.98;8.95;;;;;;;;;;5072390;28;20028;-44
2022/07/30 00:46:44;;;;;;;9.63;8.43;;;;;;;;;;5072726;28;20051;-45
2022/07/30 00:49:10;;;;;;;12.23;8.37;;;;;;;;;;5072548;28;20732;-44
2022/07/30 00:51:36;;;;;;;11.73;8.03;;;;;;;;;;5072309;28;20280;-44
2022/07/30 00:54:01;;;;;;;9.55;8.07;;;;;;;;;;5072555;28;20260;-45
2022/07/30 00:56:26;;;;;;;11.27;8.57;;;;;;;;;;5072471;28;20020;-46
2022/07/30 00:58:52;;;;;;;14.32;9.23;;;;;;;;;;5072421;28;20032;-44
2022/07/30 01:01:17;;;;;;;9.93;8.30;;;;;;;;;;5072378;28;20017;-44
2022/07/30 01:03:42;;;;;;;11.30;8.70;;;;;;;;;;5072115;28;20221;-46
2022/07/30 01:06:07;;;;;;;11.88;8.35;;;;;;;;;;5070507;28;20242;-45
2022/07/30 01:08:33;;;;;;;10.60;8.48;;;;;;;;;;5070590;28;20017;-44
2022/07/30 01:10:58;;;;;;;11.60;8.27;;;;;;;;;;5072298;28;20024;-44
2022/07/30 01:13:23;;;;;;;10.95;8.77;;;;;;;;;;5072525;28;20249;-46
2022/07/30 01:15:49;;;;;;;9.05;7.85;;;;;;;;;;5072320;28;20108;-45
2022/07/30 01:18:16;;;;;;;11.15;7.95;;;;;;;;;;5072066;28;20158;-44
2022/07/30 01:20:48;;;;;;;13.52;8.32;;;;;;;;;;5072130;28;20031;-44
2022/07/30 01:23:20;;;;;;;11.25;8.20;;;;;;;;;;5071982;28;20024;-47
2022/07/30 01:25:45;;;;;;;12.38;7.72;;;;;;;;;;5070379;28;20438;-44
2022/07/30 01:28:16;;;;;;;10.95;7.65;;;;;;;;;;5070621;28;20111;-46
2022/07/30 01:30:43;;;;;;;18.15;7.78;;;;;;;;;;5071979;28;20103;-44
2022/07/30 01:33:13;;;;;;;7.72;6.85;;;;;;;;;;5071961;28;20016;-42
2022/07/30 01:35:39;;;;;;;12.07;7.80;;;;;;;;;;5071860;28;20112;-44
2022/07/30 01:38:05;;;;;;;9.93;7.82;;;;;;;;;;5071485;28;20028;-44
2022/07/30 01:40:30;;;;;;;11.23;7.57;;;;;;;;;;5072134;28;20487;-45
2022/07/30 01:42:57;;;;;;;11.18;7.13;;;;;;;;;;5072169;28;20171;-44
2022/07/30 01:45:23;;;;;;;8.93;7.90;;;;;;;;;;5072136;28;20051;-44
2022/07/30 01:47:50;;;;;;;11.65;8.07;;;;;;;;;;5070259;28;20020;-45
2022/07/30 01:50:16;;;;;;;9.85;7.93;;;;;;;;;;5070953;28;20028;-45
2022/07/30 01:52:43;;;;;;;9.95;7.53;;;;;;;;;;5071879;28;20024;-44
2022/07/30 01:55:10;;;;;;;8.73;7.28;;;;;;;;;;5071671;28;20051;-44
2022/07/30 01:57:36;;;;;;;8.77;7.18;;;;;;;;;;5069721;28;20013;-44
2022/07/30 02:00:03;;;;;;;8.35;7.22;;;;;;;;;;5070135;28;20059;-44
2022/07/30 02:02:28;;;;;;;8.63;6.75;;;;;;;;;;5053519;28;20017;-44
2022/07/30 02:04:54;;;;;;;10.45;6.63;;;;;;;;;;5071617;28;20059;-45
2022/07/30 02:07:23;;;;;;;9.82;6.70;;;;;;;;;;5071207;28;20551;-45
2022/07/30 02:09:52;;;;;;;9.02;6.25;;;;;;;;;;5071298;28;20468;-44
2022/07/30 02:12:30;;;;;;;;;;;;;;;;;;5070702;28;20020;-44
2022/07/30 02:15:01;;;;;;;7.85;6.05;;;;;;;;;;5069778;28;19950;-45
2022/07/30 02:17:28;;;;;;;9.82;6.80;;;;;;;;;;5071462;28;20468;-44
2022/07/30 02:19:56;;;;;;;8.43;6.50;;;;;;;;;;5069242;28;20078;-45
2022/07/30 02:22:22;;;;;;;8.38;7.05;;;;;;;;;;5070192;28;20017;-44
2022/07/30 02:24:48;;;;;;;8.02;6.43;;;;;;;;;;5071723;28;20052;-44
2022/07/30 02:27:27;;;;;;;7.65;6.72;;;;;;;;;;5069945;28;20070;-45
2022/07/30 02:29:54;;;;;;;8.73;6.35;;;;;;;;;;5069534;28;20028;-44
2022/07/30 02:32:22;;;;;;;8.77;7.18;;;;;;;;;;5070995;28;20028;-45
2022/07/30 02:34:50;;;;;;;13.07;6.25;;;;;;;;;;5071407;28;20418;-44
2022/07/30 02:37:19;;;;;;;7.85;6.70;;;;;;;;;;5071768;28;20024;-47
2022/07/30 02:39:44;;;;;;;7.45;6.25;;;;;;;;;;5070714;28;20032;-44
2022/07/30 02:42:11;;;;;;;10.90;6.53;;;;;;;;;;5070003;28;20016;-44
2022/07/30 02:44:37;;;;;;;9.70;6.28;;;;;;;;;;5071277;28;20469;-46
2022/07/30 02:47:03;;;;;;;9.30;5.95;;;;;;;;;;5071145;28;20529;-45
2022/07/30 02:49:29;;;;;;;7.90;6.47;;;;;;;;;;5070555;28;20016;-45
2022/07/30 02:51:54;;;;;;;6.70;6.00;;;;;;;;;;5071012;28;20031;-44
2022/07/30 02:54:21;;;;;;;8.45;6.00;;;;;;;;;;5070923;28;20020;-44
2022/07/30 02:56:47;;;;;;;10.35;5.68;;;;;;;;;;5071416;28;20020;-44
2022/07/30 02:59:13;;;;;;;7.20;5.75;;;;;;;;;;5068758;28;20400;-46
2022/07/30 03:01:39;;;;;;;7.80;6.38;;;;;;;;;;5071015;28;20027;-44
2022/07/30 03:04:04;;;;;;;7.30;6.35;;;;;;;;;;5070554;28;20395;-46
2022/07/30 03:06:31;;;;;;;8.73;6.28;;;;;;;;;;5071142;28;20091;-45
2022/07/30 03:08:56;;;;;;;7.22;6.20;;;;;;;;;;5073577;28;20155;-44
2022/07/30 03:11:22;;;;;;;9.02;6.35;;;;;;;;;;5074757;28;20070;-44
2022/07/30 03:13:47;;;;;;;7.25;5.97;;;;;;;;;;5073607;28;20048;-45
2022/07/30 03:16:14;;;;;;;8.87;6.63;;;;;;;;;;5074518;28;20420;-45
2022/07/30 03:18:41;;;;;;;8.38;6.40;;;;;;;;;;5074667;28;20311;-44
2022/07/30 03:21:08;;;;;;;10.98;7.18;;;;;;;;;;5074911;28;20031;-44
2022/07/30 03:23:36;;;;;;;9.10;6.35;;;;;;;;;;5074667;28;20088;-44
2022/07/30 03:26:02;;;;;;;9.80;5.90;;;;;;;;;;5074449;28;20033;-46
2022/07/30 03:28:31;;;;;;;9.93;6.20;;;;;;;;;;5073872;28;20027;-46
2022/07/30 03:30:57;;;;;;;10.23;6.82;;;;;;;;;;5074162;28;20021;-47
2022/07/30 03:33:23;;;;;;;7.80;5.57;;;;;;;;;;5074693;28;20407;-45
2022/07/30 03:35:49;;;;;;;11.68;6.53;;;;;;;;;;5074747;28;20016;-44
2022/07/30 03:38:15;;;;;;;10.68;5.70;;;;;;;;;;5073796;28;20025;-44
2022/07/30 03:40:41;;;;;;;12.38;6.80;;;;;;;;;;5073177;28;20054;-44
2022/07/30 03:43:08;;;;;;;9.18;6.28;;;;;;;;;;5074419;28;20032;-44
2022/07/30 03:45:34;;;;;;;13.65;6.63;;;;;;;;;;5072428;28;20521;-44
2022/07/30 03:48:00;;;;;;;10.02;6.47;;;;;;;;;;5073899;28;20016;-45
2022/07/30 03:50:26;;;;;;;7.93;5.88;;;;;;;;;;5073891;28;20024;-44
2022/07/30 03:52:51;;;;;;;8.43;5.63;;;;;;;;;;5074119;28;20029;-45
2022/07/30 03:55:17;;;;;;;11.00;6.00;;;;;;;;;;5073104;28;20025;-44
2022/07/30 03:57:42;;;;;;;8.30;5.72;;;;;;;;;;5073538;28;20009;-45
2022/07/30 04:00:12;;;;;;;10.93;6.07;;;;;;;;;;5073509;28;20479;-44
2022/07/30 04:02:42;;;;;;;12.60;5.80;;;;;;;;;;5072519;28;20428;-46
2022/07/30 04:05:07;;;;;;;8.35;6.20;;;;;;;;;;5073504;28;20563;-44
2022/07/30 04:07:33;;;;;;;7.78;5.22;;;;;;;;;;5074049;28;20111;-44
2022/07/30 04:09:58;;;;;;;11.95;5.80;;;;;;;;;;5072372;28;20388;-44
2022/07/30 04:12:23;;;;;;;7.75;5.60;;;;;;;;;;5072502;28;20464;-45
2022/07/30 04:14:49;;;;;;;7.45;6.25;;;;;;;;;;5073042;28;20390;-47
2022/07/30 04:17:23;;;;;;;6.90;6.03;;;;;;;;;;5072094;28;20563;-44
2022/07/30 04:19:50;;;;;;;8.70;5.45;;;;;;;;;;5072775;28;20182;-45
2022/07/30 04:22:19;;;;;;;5.88;5.28;;;;;;;;;;5073034;28;20029;-44
2022/07/30 04:24:44;;;;;;;16.77;7.70;;;;;;;;;;5072877;28;20105;-45
2022/07/30 04:27:10;;;;;;;8.00;4.95;;;;;;;;;;5073578;28;20060;-44
2022/07/30 04:29:35;;;;;;;8.07;5.00;;;;;;;;;;5073532;28;20027;-44
2022/07/30 04:32:00;;;;;;;8.20;5.45;;;;;;;;;;5073465;28;20113;-45
2022/07/30 04:34:26;;;;;;;7.07;5.73;;;;;;;;;;5073604;28;20025;-45
2022/07/30 04:36:51;;;;;;;7.72;5.78;;;;;;;;;;5072985;28;20248;-44
2022/07/30 04:39:16;;;;;;;7.75;5.50;;;;;;;;;;5071131;28;20510;-44
2022/07/30 04:41:41;;;;;;;8.07;5.50;;;;;;;;;;5071242;28;20149;-44
2022/07/30 04:44:07;;;;;;;9.35;5.97;;;;;;;;;;5072413;28;20023;-46
2022/07/30 04:46:32;;;;;;;9.82;5.97;;;;;;;;;;5071435;28;20052;-44
2022/07/30 04:48:57;;;;;;;7.65;5.90;;;;;;;;;;5071897;28;20027;-44
2022/07/30 04:51:28;;;;;;;6.78;5.32;;;;;;;;;;5073061;28;20017;-43
2022/07/30 04:53:54;;;;;;;6.05;5.15;;;;;;;;;;5053042;28;20052;-44
2022/07/30 04:56:20;;;;;;;10.20;6.03;;;;;;;;;;5052620;28;20028;-44
2022/07/30 04:58:46;;;;;;;11.15;5.35;;;;;;;;;;5052282;28;20099;-44
2022/07/30 05:01:14;;;;;;;10.95;5.13;;;;;;;;;;5052654;28;20057;-45
2022/07/30 05:03:40;;;;;;;6.95;5.20;;;;;;;;;;5051072;28;20021;-44
2022/07/30 05:06:06;;;;;;;11.00;5.40;;;;;;;;;;5052359;28;20461;-43
2022/07/30 05:08:31;;;;;;;9.07;6.05;;;;;;;;;;5050936;28;20082;-44
2022/07/30 05:10:57;;;;;;;7.70;5.60;;;;;;;;;;5052325;28;20103;-44
2022/07/30 05:13:22;;;;;;;8.90;5.20;;;;;;;;;;5052371;28;20399;-44
2022/07/30 05:15:47;;;;;;;8.07;5.27;;;;;;;;;;5052669;28;20020;-44
2022/07/30 05:18:13;;;;;;;9.00;5.82;;;;;;;;;;5052412;28;20701;-44
2022/07/30 05:20:38;;;;;;;6.15;5.28;;;;;;;;;;5050147;28;20464;-45
2022/07/30 05:23:04;;;;;;;5.75;4.93;;;;;;;;;;5052546;28;20021;-43
2022/07/30 05:25:29;;;;;;;8.02;5.18;;;;;;;;;;5051556;28;20024;-44
2022/07/30 05:27:56;;;;;;;7.78;5.80;;;;;;;;;;5052049;28;20534;-41
2022/07/30 05:30:22;;;;;;;6.82;5.35;;;;;;;;;;5050726;28;20067;-44
2022/07/30 05:32:47;;;;;;;10.80;6.07;;;;;;;;;;5051547;28;20449;-41
2022/07/30 05:35:12;;;;;;;9.60;5.90;;;;;;;;;;5052321;28;20020;-43
2022/07/30 05:37:38;;;;;;;8.40;6.45;;;;;;;;;;5052314;28;20238;-45
2022/07/30 05:40:03;;;;;;;10.33;5.67;;;;;;;;;;5051573;28;20033;-45
2022/07/30 05:42:29;;;;;;;7.15;5.70;;;;;;;;;;5051571;28;20717;-43
2022/07/30 05:44:54;;;;;;;10.00;5.97;;;;;;;;;;5051785;28;20095;-41
2022/07/30 05:47:19;;;;;;;9.30;5.30;;;;;;;;;;5050580;28;20253;-43
2022/07/30 05:49:45;;;;;;;8.25;6.07;;;;;;;;;;5051848;28;20246;-44
2022/07/30 05:52:10;;;;;;;7.95;5.78;;;;;;;;;;5057809;28;20042;-46
2022/07/30 05:54:35;;;;;;;9.73;5.93;;;;;;;;;;5070551;28;20063;-43
2022/07/30 05:57:01;;;;;;;7.47;5.57;;;;;;;;;;5071522;28;20229;-46
2022/07/30 05:59:26;;;;;;;6.67;5.23;;;;;;;;;;5071081;28;20715;-42
2022/07/30 06:01:51;;;;;;;5.78;5.18;;;;;;;;;;5071534;28;20367;-44
2022/07/30 06:04:17;;;;;;;10.57;6.35;;;;;;;;;;5070322;28;20484;-43
2022/07/30 06:06:42;;;;;;;8.70;5.57;;;;;;;;;;5071899;28;20024;-44
2022/07/30 06:09:07;;;;;;;10.85;6.47;;;;;;;;;;5070214;28;20245;-44
2022/07/30 06:11:32;;;;;;;7.30;5.68;;;;;;;;;;5070744;28;20074;-44
2022/07/30 06:13:58;;;;;;;10.37;5.57;;;;;;;;;;5071326;28;20084;-43
2022/07/30 06:16:23;;;;;;;8.55;5.20;;;;;;;;;;5070085;28;20257;-43
2022/07/30 06:18:48;;;;;;;8.90;5.73;;;;;;;;;;5071472;28;20064;-43
2022/07/30 06:21:14;;;;;;;9.60;5.43;;;;;;;;;;5070115;28;20250;-44
2022/07/30 06:23:39;;;;;;;9.50;5.20;;;;;;;;;;5069971;28;20594;-43
2022/07/30 06:26:04;;;;;;;8.30;5.03;;;;;;;;;;5071224;28;20240;-45
2022/07/30 06:28:29;;;;;;;11.70;5.23;;;;;;;;;;5071405;28;20245;-43
2022/07/30 06:30:55;;;;;;;10.80;5.87;;;;;;;;;;5072065;28;20306;-44
2022/07/30 06:33:21;;;;;;;7.20;5.43;;;;;;;;;;5071691;28;20563;-43
2022/07/30 06:35:47;;;;;;;11.25;5.30;;;;;;;;;;5070342;28;20127;-44
2022/07/30 06:38:13;;;;;;;12.30;5.63;;;;;;;;;;5071143;28;20029;-44
2022/07/30 06:40:38;;;;;;;11.25;5.50;;;;;;;;;;5069680;28;20460;-43
2022/07/30 06:43:04;;;;;;;7.13;5.40;;;;;;;;;;5072423;28;20435;-43
2022/07/30 06:45:29;;;;;;;10.20;5.70;;;;;;;;;;5075657;28;20368;-41
2022/07/30 06:47:58;;;;;;;8.90;5.03;;;;;;;;;;5074178;28;20023;-43
2022/07/30 06:50:24;;;;;;;9.07;5.55;;;;;;;;;;5075099;28;20241;-44
2022/07/30 06:52:49;;;;;;;9.60;6.18;;;;;;;;;;5075078;28;20091;-47
2022/07/30 06:55:14;;;;;;;7.17;5.50;;;;;;;;;;5073401;28;20115;-45
2022/07/30 06:57:40;;;;;;;8.85;5.85;;;;;;;;;;5074314;28;20260;-43
2022/07/30 07:00:06;;;;;;;9.82;5.93;;;;;;;;;;5073301;28;20032;-44
2022/07/30 07:02:32;;;;;;;8.88;5.40;;;;;;;;;;5074949;28;20027;-45
2022/07/30 07:04:57;;;;;;;34.15;7.65;;;;;;;;;;5075307;28;20123;-42
2022/07/30 07:07:23;;;;;;;10.90;5.30;;;;;;;;;;5075006;28;20099;-44
2022/07/30 07:09:48;;;;;;;10.33;5.57;;;;;;;;;;5074390;28;20234;-44
2022/07/30 07:12:13;;;;;;;11.37;5.73;;;;;;;;;;5073476;28;20253;-45
2022/07/30 07:14:38;;;;;;;8.73;5.37;;;;;;;;;;5074393;28;20241;-44
2022/07/30 07:17:04;;;;;;;7.87;5.40;;;;;;;;;;5075009;28;20065;-44
2022/07/30 07:19:29;;;;;;;5.90;5.30;;;;;;;;;;5074641;28;20063;-45
2022/07/30 07:21:54;;;;;;;8.70;6.15;;;;;;;;;;5072761;28;20391;-43
2022/07/30 07:24:20;;;;;;;6.57;5.20;;;;;;;;;;5073200;28;20376;-45
2022/07/30 07:26:45;;;;;;;7.50;5.70;;;;;;;;;;5074775;28;20269;-43
2022/07/30 07:29:10;;;;;;;9.20;6.05;;;;;;;;;;5072928;28;20427;-46
2022/07/30 07:31:36;;;;;;;11.35;5.97;;;;;;;;;;5073486;28;20028;-43
2022/07/30 07:34:01;;;;;;;8.70;5.50;;;;;;;;;;5074656;28;20071;-44
2022/07/30 07:36:27;;;;;;;12.30;5.50;;;;;;;;;;5074139;28;20756;-44
2022/07/30 07:38:52;;;;;;;15.73;6.53;;;;;;;;;;5072528;28;20289;-44
2022/07/30 07:41:17;;;;;;;12.97;5.20;;;;;;;;;;5074339;28;20422;-44
2022/07/30 07:43:43;;;;;;;10.43;5.87;;;;;;;;;;5074253;28;20234;-43
2022/07/30 07:46:08;;;;;;;6.50;5.53;;;;;;;;;;5074024;28;20244;-44
2022/07/30 07:48:33;;;;;;;23.88;5.90;;;;;;;;;;5074366;28;20078;-43
2022/07/30 07:50:59;;;;;;;6.67;5.63;;;;;;;;;;5072444;28;20076;-42
2022/07/30 07:53:24;;;;;;;8.32;5.82;;;;;;;;;;5071588;28;20245;-43
2022/07/30 07:55:50;;;;;;;7.50;5.38;;;;;;;;;;5071359;28;20108;-44
2022/07/30 07:58:16;;;;;;;6.70;4.88;;;;;;;;;;5072943;28;20032;-44
2022/07/30 08:00:41;;;;;;;6.25;5.15;;;;;;;;;;5073658;28;20020;-43
2022/07/30 08:03:07;;;;;;;11.15;5.60;;;;;;;;;;5073849;28;20024;-44
2022/07/30 08:05:32;;;;;;;9.77;5.68;;;;;;;;;;5073543;28;20497;-43
2022/07/30 08:07:57;;;;;;;13.03;6.10;;;;;;;;;;5073648;28;20493;-45
2022/07/30 08:10:23;;;;;;;6.97;5.80;;;;;;;;;;5073759;28;20245;-44
2022/07/30 08:12:48;;;;;;;7.63;4.80;;;;;;;;;;5071930;28;20024;-44
2022/07/30 08:15:13;;;;;;;11.38;6.18;;;;;;;;;;5072882;28;20145;-44
2022/07/30 08:17:43;;;;;;;8.02;5.82;;;;;;;;;;5072211;28;20028;-44
2022/07/30 08:20:08;;;;;;;8.35;5.70;;;;;;;;;;5073268;28;20043;-45
2022/07/30 08:22:34;;;;;;;7.22;5.63;;;;;;;;;;5072229;28;20107;-44
2022/07/30 08:24:59;;;;;;;8.10;6.33;;;;;;;;;;5072054;28;20020;-44
2022/07/30 08:27:25;;;;;;;13.02;6.63;;;;;;;;;;5071315;28;20245;-44
2022/07/30 08:29:50;;;;;;;8.48;6.28;;;;;;;;;;5072974;28;20028;-46
2022/07/30 08:32:15;;;;;;;12.43;6.38;;;;;;;;;;5073217;28;20022;-43
2022/07/30 08:34:41;;;;;;;8.43;6.47;;;;;;;;;;5071854;28;20408;-44
2022/07/30 08:37:06;;;;;;;6.68;5.80;;;;;;;;;;5071410;28;20056;-46
2022/07/30 08:39:31;;;;;;;8.53;5.93;;;;;;;;;;5071651;28;20020;-45
2022/07/30 08:41:57;;;;;;;7.47;6.00;;;;;;;;;;5071794;28;20254;-45
2022/07/30 08:44:23;;;;;;;10.20;6.85;;;;;;;;;;5072684;28;20253;-44
2022/07/30 08:46:50;;;;;;;10.43;5.65;;;;;;;;;;5071217;28;20070;-45
2022/07/30 08:49:16;;;;;;;13.15;6.75;;;;;;;;;;5072517;28;20112;-43
2022/07/30 08:51:42;;;;;;;6.50;5.85;;;;;;;;;;5072361;28;20471;-44
2022/07/30 08:54:07;;;;;;;10.38;5.95;;;;;;;;;;5073166;28;20107;-45
2022/07/30 08:56:33;;;;;;;13.70;6.35;;;;;;;;;;5072558;28;20383;-43
2022/07/30 08:58:58;;;;;;;13.17;6.37;;;;;;;;;;5072161;28;20087;-43
2022/07/30 09:01:24;;;;;;;11.65;6.85;;;;;;;;;;5072731;28;20039;-43
2022/07/30 09:03:49;;;;;;;8.93;5.37;;;;;;;;;;5072429;28;20108;-41
2022/07/30 09:06:14;;;;;;;6.97;5.37;;;;;;;;;;5072261;28;20329;-43
2022/07/30 09:08:40;;;;;;;12.47;5.80;;;;;;;;;;5071314;28;20029;-43
2022/07/30 09:11:05;;;;;;;9.82;6.00;;;;;;;;;;5072202;28;20241;-42
2022/07/30 09:13:34;;;;;;;8.70;5.97;;;;;;;;;;5071964;28;20045;-41
2022/07/30 09:15:59;;;;;;;13.50;6.30;;;;;;;;;;5070869;28;20025;-43
2022/07/30 09:18:28;;;;;;;11.27;5.65;;;;;;;;;;5072565;28;20094;-44
2022/07/30 09:20:53;;;;;;;10.43;5.68;;;;;;;;;;5072359;28;20527;-43
2022/07/30 09:23:18;;;;;;;12.82;5.97;;;;;;;;;;5072315;28;20016;-42
2022/07/30 09:25:45;;;;;;;9.83;5.53;;;;;;;;;;5072580;28;20028;-44
2022/07/30 09:28:10;;;;;;;6.47;5.20;;;;;;;;;;5071979;28;20039;-45
2022/07/30 09:30:42;;;;;;;6.63;5.32;;;;;;;;;;5072152;28;20478;-43
2022/07/30 09:33:07;;;;;;;10.15;5.68;;;;;;;;;;5071935;28;20418;-44
2022/07/30 09:35:33;;;;;;;8.73;5.20;;;;;;;;;;5070654;28;20017;-43
2022/07/30 09:37:59;;;;;;;8.80;5.20;;;;;;;;;;5070213;28;20048;-46
2022/07/30 09:40:25;;;;;;;8.85;5.97;;;;;;;;;;5071306;28;20032;-42
2022/07/30 09:43:03;;;;;;;6.80;4.95;;;;;;;;;;5072037;28;20456;-45
2022/07/30 09:45:28;;;;;;;10.70;5.32;;;;;;;;;;5071923;28;20025;-43
2022/07/30 09:47:53;;;;;;;13.43;5.53;;;;;;;;;;5072074;28;20027;-44
2022/07/30 09:50:19;;;;;;;12.57;5.23;;;;;;;;;;5072139;28;20249;-44
2022/07/30 09:52:45;;;;;;;11.40;5.85;;;;;;;;;;5071712;28;20531;-44
2022/07/30 09:55:11;;;;;;;9.07;5.85;;;;;;;;;;5071754;28;20463;-44
2022/07/30 09:57:52;;;;;;;6.85;5.30;;;;;;;;;;5071308;28;20024;-42
2022/07/30 10:00:19;;;;;;;8.88;5.30;;;;;;;;;;5071702;28;20036;-43
2022/07/30 10:02:46;;;;;;;7.28;4.93;;;;;;;;;;5071122;28;20032;-45
2022/07/30 10:05:17;;;;;;;8.70;5.22;;;;;;;;;;5071364;28;20056;-44
2022/07/30 10:07:46;;;;;;;5.85;5.13;;;;;;;;;;5071479;28;20506;-43
2022/07/30 10:10:12;;;;;;;12.85;5.57;;;;;;;;;;5069757;28;20171;-44
2022/07/30 10:12:38;;;;;;;9.23;5.37;;;;;;;;;;5070355;28;20115;-44
2022/07/30 10:15:04;;;;;;;7.32;4.95;;;;;;;;;;5071613;28;20237;-42
2022/07/30 10:17:30;;;;;;;7.07;5.28;;;;;;;;;;5070932;28;20111;-44
2022/07/30 10:19:56;;;;;;;7.85;5.32;;;;;;;;;;5071218;28;20094;-44
2022/07/30 10:22:21;;;;;;;6.07;4.50;;;;;;;;;;5071147;28;20033;-43
2022/07/30 10:24:46;;;;;;;11.00;5.00;;;;;;;;;;5069359;28;20024;-43
2022/07/30 10:27:12;;;;;;;14.43;4.97;;;;;;;;;;5071419;28;20030;-44
2022/07/30 10:29:37;;;;;;;11.47;4.63;;;;;;;;;;5070882;28;20024;-43
2022/07/30 10:32:03;;;;;;;14.50;5.00;;;;;;;;;;5071608;28;20244;-41
2022/07/30 10:34:28;;;;;;;7.78;4.40;;;;;;;;;;5071231;28;20028;-43
2022/07/30 10:36:56;;;;;;;18.30;5.28;;;;;;;;;;5070949;28;20383;-47
2022/07/30 10:39:28;;;;;;;11.50;4.20;;;;;;;;;;5070836;28;20105;-44
2022/07/30 10:41:53;;;;;;;7.13;4.45;;;;;;;;;;5071360;28;20531;-44
2022/07/30 10:44:22;;;;;;;9.23;4.80;;;;;;;;;;5070847;28;20095;-42
2022/07/30 10:46:54;;;;;;;9.98;4.75;;;;;;;;;;5069844;28;20060;-44
2022/07/30 10:49:20;;;;;;;8.32;4.70;;;;;;;;;;5069765;28;20417;-44
2022/07/30 10:51:47;;;;;;;5.30;4.68;;;;;;;;;;5070529;28;20031;-43
2022/07/30 10:54:32;;;;;;;10.85;4.60;;;;;;;;;;5070664;28;20013;-43
2022/07/30 10:57:12;;;;;;;7.28;4.35;;;;;;;;;;5067021;28;20037;-43
2022/07/30 10:59:57;;;;;;;8.35;4.93;;;;;;;;;;5069335;28;20395;-44
2022/07/30 11:02:27;;;;;;;9.25;4.93;;;;;;;;;;5070334;28;20531;-44
2022/07/30 11:05:19;;;;;;;10.35;4.85;;;;;;;;;;5069402;28;20044;-43
2022/07/30 11:07:44;;;;;;;5.93;4.32;;;;;;;;;;5067003;28;20036;-44
2022/07/30 11:10:39;;;;;;;7.97;4.50;;;;;;;;;;5070414;28;20028;-44
2022/07/30 11:13:07;;;;;;;10.23;4.93;;;;;;;;;;5060307;28;20476;-43
2022/07/30 11:16:02;;;;;;;8.48;4.80;;;;;;;;;;5070482;28;20492;-44
2022/07/30 11:18:27;;;;;;;7.90;4.40;;;;;;;;;;5060158;28;20090;-44
2022/07/30 11:21:19;;;;;;;14.18;5.20;;;;;;;;;;5069006;28;20025;-44
2022/07/30 11:23:45;;;;;;;10.00;5.50;;;;;;;;;;5067033;28;20399;-44
2022/07/30 11:26:30;;;;;;;9.75;5.10;;;;;;;;;;5070436;28;20028;-46
2022/07/30 11:28:56;;;;;;;7.18;5.13;;;;;;;;;;5071119;28;20410;-43
2022/07/30 11:31:47;;;;;;;7.97;5.60;;;;;;;;;;5073814;28;20020;-44
2022/07/30 11:34:19;;;;;;;7.63;4.68;;;;;;;;;;5070543;28;20033;-43
2022/07/30 11:37:03;;;;;;;7.95;5.05;;;;;;;;;;5072702;28;20020;-44
2022/07/30 11:39:47;;;;;;;9.10;5.22;;;;;;;;;;5072210;28;20375;-43
2022/07/30 11:42:27;;;;;;;8.63;5.20;;;;;;;;;;5073550;28;20020;-44
2022/07/30 11:45:12;;;;;;;9.63;4.63;;;;;;;;;;5073731;28;20095;-44
2022/07/30 11:47:38;;;;;;;19.98;5.60;;;;;;;;;;5073963;28;20115;-43
2022/07/30 11:50:03;;;;;;;8.13;4.90;;;;;;;;;;5073819;28;20024;-43
2022/07/30 11:52:29;;;;;;;6.50;4.72;;;;;;;;;;5072605;28;20017;-43
2022/07/30 11:54:55;;;;;;;6.70;5.28;;;;;;;;;;5073974;28;20100;-43
2022/07/30 11:57:37;;;;;;;7.30;4.97;;;;;;;;;;5074006;28;20024;-43
2022/07/30 12:00:03;;;;;;;10.13;4.82;;;;;;;;;;5073770;28;20292;-44
2022/07/30 12:02:28;;;;;;;7.30;4.93;;;;;;;;;;5073677;28;20025;-43
2022/07/30 12:04:53;;;;;;;6.53;4.75;;;;;;;;;;5072067;28;20102;-44
2022/07/30 12:07:22;;;;;;;7.65;4.90;;;;;;;;;;5071927;28;20143;-43
2022/07/30 12:09:48;;;;;;;5.78;4.35;;;;;;;;;;5073915;28;20032;-43
2022/07/30 12:12:22;;;;;;;6.00;4.20;;;;;;;;;;5071925;28;20016;-43
2022/07/30 12:14:47;;;;;;;3.53;3.22;;;;;;;;;;5073198;28;20029;-42
2022/07/30 12:17:13;;;;;;;4.50;3.25;;;;;;;;;;5071789;28;20017;-44
2022/07/30 12:19:44;;;;;;;4.13;2.97;;;;;;;;;;5073310;28;20035;-43
2022/07/30 12:22:10;;;;;;;4.32;3.00;;;;;;;;;;5073717;28;20586;-44
2022/07/30 12:24:35;;;;;;;8.52;2.97;;;;;;;;;;5071727;28;20047;-43
2022/07/30 12:27:04;;;;;;;3.88;2.60;;;;;;;;;;5073430;28;20104;-44
2022/07/30 12:29:31;;;;;;;7.40;2.63;;;;;;;;;;5072958;28;20422;-43
2022/07/30 12:31:56;;;;;;;5.82;2.70;;;;;;;;;;5072600;28;20111;-43
2022/07/30 12:34:22;;;;;;;2.92;2.38;;;;;;;;;;5071670;28;20519;-43
2022/07/30 12:36:48;;;;;;;2.65;2.40;;;;;;;;;;5072975;28;20029;-47
2022/07/30 12:39:25;;;;;;;3.53;2.55;;;;;;;;;;5072505;28;20081;-44
2022/07/30 12:41:52;;;;;;;3.45;2.75;;;;;;;;;;5071400;28;20052;-45
2022/07/30 12:44:33;;;;;;;7.22;2.75;;;;;;;;;;5072450;28;20032;-45
2022/07/30 12:46:59;;;;;;;3.10;2.80;;;;;;;;;;5072824;28;20433;-44
2022/07/30 12:49:28;;;;;;;2.80;2.58;;;;;;;;;;5071227;28;20037;-44
2022/07/30 12:51:53;;;;;;;4.35;2.78;;;;;;;;;;5072793;28;20023;-44
2022/07/30 12:54:19;;;;;;;8.75;2.40;;;;;;;;;;5072559;28;20024;-45
2022/07/30 12:57:03;;;;;;;2.40;2.20;;;;;;;;;;5072958;28;20024;-43
2022/07/30 12:59:29;;;;;;;3.15;2.70;;;;;;;;;;5071974;28;20312;-44
2022/07/30 13:02:02;;;;;;;2.97;2.53;;;;;;;;;;5071087;28;20117;-43
2022/07/30 13:04:28;;;;;;;2.83;2.60;;;;;;;;;;5073018;28;20055;-43
2022/07/30 13:07:03;;;;;;;8.68;2.65;;;;;;;;;;5072685;28;20488;-44
2022/07/30 13:09:28;;;;;;;3.65;2.50;;;;;;;;;;5072460;28;20028;-43
2022/07/30 13:11:53;;;;;;;4.23;2.50;;;;;;;;;;5071859;28;20016;-45
2022/07/30 13:14:19;;;;;;;4.17;2.50;;;;;;;;;;5072043;28;20249;-43
2022/07/30 13:16:44;;;;;;;3.20;2.90;;;;;;;;;;5072688;28;20017;-42
2022/07/30 13:19:10;;;;;;;2.83;2.50;;;;;;;;;;5069929;28;20495;-45
2022/07/30 13:21:36;;;;;;;3.45;2.83;;;;;;;;;;5072123;28;20312;-44
2022/07/30 13:24:02;;;;;;;6.38;2.92;;;;;;;;;;5070773;28;20016;-44
2022/07/30 13:26:30;;;;;;;4.35;2.28;;;;;;;;;;5071713;28;20563;-44
2022/07/30 13:28:56;;;;;;;4.15;2.42;;;;;;;;;;5070367;28;20479;-45
2022/07/30 13:31:22;;;;;;;4.13;2.53;;;;;;;;;;5072127;28;20051;-44
2022/07/30 13:33:48;;;;;;;3.95;2.92;;;;;;;;;;5070820;28;20024;-44
2022/07/30 13:36:14;;;;;;;3.60;2.83;;;;;;;;;;5071923;28;20017;-44
2022/07/30 13:38:39;;;;;;;5.38;2.30;;;;;;;;;;5071298;28;20032;-44
2022/07/30 13:41:04;;;;;;;2.88;2.30;;;;;;;;;;5069703;28;20035;-44
2022/07/30 13:43:30;;;;;;;4.30;2.22;;;;;;;;;;5070023;28;20031;-44
2022/07/30 13:45:55;;;;;;;3.50;2.50;;;;;;;;;;5071448;28;20017;-43
2022/07/30 13:48:21;;;;;;;2.97;2.78;;;;;;;;;;5071638;28;20410;-44
2022/07/30 13:50:46;;;;;;;4.75;3.03;;;;;;;;;;5071716;28;20019;-43
2022/07/30 13:53:11;;;;;;;6.47;3.88;;;;;;;;;;5070477;28;20482;-44
2022/07/30 13:55:37;;;;;;;4.18;3.70;;;;;;;;;;5069775;28;20493;-43
2022/07/30 13:58:03;;;;;;;6.90;4.03;;;;;;;;;;5070671;28;20106;-45
2022/07/30 14:00:31;;;;;;;5.00;4.00;;;;;;;;;;5070490;28;20480;-43
2022/07/30 14:02:57;;;;;;;5.00;4.50;;;;;;;;;;5071354;28;20031;-43
2022/07/30 14:05:22;;;;;;;5.43;4.70;;;;;;;;;;5071067;28;20021;-43
2022/07/30 14:07:47;;;;;;;12.45;6.05;;;;;;;;;;5071150;28;20502;-43
2022/07/30 14:10:13;;;;;;;5.13;4.55;;;;;;;;;;5069979;28;20207;-44
2022/07/30 14:12:38;;;;;;;6.57;4.88;;;;;;;;;;5070187;28;20103;-43
2022/07/30 14:15:04;;;;;;;6.03;5.53;;;;;;;;;;5070277;28;20020;-45
2022/07/30 14:17:30;;;;;;;7.20;5.05;;;;;;;;;;5070514;28;20012;-43
2022/07/30 14:19:55;;;;;;;6.25;5.65;;;;;;;;;;5071672;28;20041;-43
2022/07/30 14:22:21;;;;;;;10.07;4.73;;;;;;;;;;5071321;28;20143;-43
2022/07/30 14:24:46;;;;;;;8.77;5.40;;;;;;;;;;5071320;28;20242;-44
2022/07/30 14:27:11;;;;;;;5.68;5.15;;;;;;;;;;5070539;28;20056;-45
2022/07/30 14:29:37;;;;;;;9.63;5.97;;;;;;;;;;5069947;28;20024;-43
2022/07/30 14:32:02;;;;;;;7.03;4.63;;;;;;;;;;5070036;28;20469;-42
2022/07/30 14:34:28;;;;;;;4.88;4.38;;;;;;;;;;5070140;28;20074;-45
2022/07/30 14:36:53;;;;;;;10.03;4.90;;;;;;;;;;5071328;28;20026;-44